Time;durP1;ratioP1;P1;durP2;ratioP2;P2;SDS_P1;SDS_P2;PMS_P1;PMS_P2;Temp;Humidity;BMP_temperature;BMP_pressure;BME280_temperature;BME280_humidity;BME280_pressure;Samples;Min_cycle;Max_cycle;Signal;HPM_P1;HPM_P2
2022/01/19 00:02:24;;;;;;;6.35;2.30;;;2.90;99.90;;;;;;5293371;27;20043;-73
2022/01/19 00:04:55;;;;;;;6.47;2.15;;;3.10;99.90;;;;;;5293647;27;20019;-72
2022/01/19 00:07:26;;;;;;;8.60;1.83;;;3.00;99.90;;;;;;5292498;28;20063;-70
2022/01/19 00:10:03;;;;;;;7.38;2.67;;;2.80;99.90;;;;;;5292335;27;20508;-70
2022/01/19 00:12:35;;;;;;;5.05;2.10;;;2.90;99.90;;;;;;5299118;27;20382;-73
2022/01/19 00:15:07;;;;;;;11.40;1.90;;;3.10;99.90;;;;;;5292434;28;20088;-72
2022/01/19 00:17:39;;;;;;;5.55;1.88;;;3.10;99.90;;;;;;5292617;28;20032;-73
2022/01/19 00:20:10;;;;;;;4.65;2.30;;;3.10;99.90;;;;;;5295142;27;20028;-71
2022/01/19 00:22:41;;;;;;;10.25;2.20;;;3.00;99.90;;;;;;5306882;27;20486;-73
2022/01/19 00:25:12;;;;;;;9.93;2.53;;;3.00;99.90;;;;;;5313476;27;20033;-74
2022/01/19 00:27:43;;;;;;;18.15;2.65;;;2.80;99.90;;;;;;5309639;27;20020;-71
2022/01/19 00:30:14;;;;;;;5.75;2.17;;;2.80;99.90;;;;;;5313419;27;20043;-72
2022/01/19 00:32:45;;;;;;;5.38;2.13;;;2.90;99.90;;;;;;5313335;27;20015;-72
2022/01/19 00:35:16;;;;;;;10.07;2.63;;;2.90;99.90;;;;;;5299567;27;20023;-72
2022/01/19 00:37:47;;;;;;;7.57;2.40;;;2.80;99.90;;;;;;5297939;27;20098;-71
2022/01/19 00:40:18;;;;;;;15.98;4.45;;;2.80;99.90;;;;;;5305048;27;20101;-71
2022/01/19 00:42:49;;;;;;;7.88;2.95;;;2.80;99.90;;;;;;5299851;27;20035;-70
2022/01/19 00:45:21;;;;;;;17.77;5.50;;;3.00;99.90;;;;;;5307025;27;20084;-70
2022/01/19 00:47:53;;;;;;;13.25;3.78;;;2.90;99.90;;;;;;5295319;27;20027;-71
2022/01/19 00:50:27;;;;;;;11.15;3.72;;;2.80;99.90;;;;;;5303480;27;20031;-72
2022/01/19 00:52:58;;;;;;;7.45;2.38;;;2.50;99.90;;;;;;5298391;27;20046;-72
2022/01/19 00:55:29;;;;;;;12.35;5.18;;;2.40;99.90;;;;;;5280220;27;20054;-71
2022/01/19 00:58:00;;;;;;;10.13;4.25;;;2.20;99.90;;;;;;5290812;27;20114;-71
2022/01/19 01:00:36;;;;;;;18.40;6.38;;;2.00;99.90;;;;;;5306012;27;20521;-71
2022/01/19 01:03:12;;;;;;;24.23;7.65;;;2.10;99.90;;;;;;5307060;27;20351;-72
2022/01/19 01:05:48;;;;;;;18.13;7.10;;;2.00;99.90;;;;;;5309327;27;20027;-72
2022/01/19 01:08:19;;;;;;;19.52;5.22;;;1.90;99.90;;;;;;5295192;27;20088;-71
2022/01/19 01:10:51;;;;;;;12.98;3.83;;;1.90;99.90;;;;;;5290679;27;20024;-72
2022/01/19 01:16:04;;;;;;;12.25;5.32;;;2.10;99.90;;;;;;5306782;27;20015;-72
2022/01/19 01:18:41;;;;;;;15.45;6.25;;;2.00;99.90;;;;;;5295173;27;20463;-73
2022/01/19 01:21:15;;;;;;;9.25;3.42;;;2.20;99.90;;;;;;5281705;28;20036;-72
2022/01/19 01:23:49;;;;;;;9.98;4.13;;;2.10;99.90;;;;;;5304612;27;20080;-73
2022/01/19 01:26:24;;;;;;;8.75;3.75;;;2.20;99.90;;;;;;5305825;27;20020;-70
2022/01/19 01:28:59;;;;;;;7.15;2.88;;;2.10;99.90;;;;;;5300221;27;20030;-70
2022/01/19 01:31:32;;;;;;;6.60;3.03;;;1.90;99.90;;;;;;5300905;27;20111;-71
2022/01/19 01:34:07;;;;;;;5.85;1.88;;;1.90;99.90;;;;;;5300353;27;20027;-70
2022/01/19 01:36:38;;;;;;;8.40;2.17;;;2.30;99.90;;;;;;5290155;27;20514;-73
2022/01/19 01:39:14;;;;;;;4.72;1.92;;;2.60;99.90;;;;;;5290453;27;20106;-73
2022/01/19 01:41:46;;;;;;;5.80;2.28;;;2.60;99.90;;;;;;5294891;27;20034;-73
2022/01/19 01:44:17;;;;;;;8.18;2.30;;;2.80;99.90;;;;;;5291350;27;20114;-71
2022/01/19 01:46:56;;;;;;;4.13;2.10;;;2.80;99.90;;;;;;5309035;27;20031;-72
2022/01/19 01:49:45;;;;;;;6.47;2.40;;;2.70;99.90;;;;;;5295437;27;20043;-72
2022/01/19 01:55:12;;;;;;;5.82;1.98;;;2.80;99.90;;;;;;5291175;27;20038;-71
2022/01/19 01:57:43;;;;;;;10.55;2.90;;;2.80;99.90;;;;;;5301358;27;20039;-71
2022/01/19 02:00:23;;;;;;;6.75;2.38;;;2.70;99.90;;;;;;5305896;27;20019;-70
2022/01/19 02:02:55;;;;;;;7.90;2.03;;;2.50;99.90;;;;;;5302359;27;20028;-70
2022/01/19 02:05:27;;;;;;;10.07;1.98;;;1.50;99.90;;;;;;5290995;27;20035;-70
2022/01/19 02:08:10;;;;;;;10.90;2.88;;;0.70;99.90;;;;;;5301829;27;20193;-70
2022/01/19 02:11:07;;;;;;;7.50;2.60;;;0.70;99.90;;;;;;5306933;27;20026;-71
2022/01/19 02:16:50;;;;;;;10.82;3.63;;;1.00;99.90;;;;;;5294711;27;20080;-71
2022/01/19 02:22:10;;;;;;;11.77;3.33;;;0.90;99.90;;;;;;5299212;28;20501;-71
2022/01/19 02:24:45;;;;;;;5.28;2.60;;;1.10;99.90;;;;;;5297841;27;20027;-71
2022/01/19 02:41:16;;;;;;;6.10;2.60;;;1.00;99.90;;;;;;5293692;28;20043;-71
2022/01/19 02:43:49;;;;;;;11.80;3.47;;;1.00;99.90;;;;;;5297219;28;20012;-71
2022/01/19 02:49:16;;;;;;;9.52;4.07;;;0.80;99.90;;;;;;5304764;28;20023;-72
2022/01/19 02:51:52;;;;;;;11.45;2.85;;;0.70;99.90;;;;;;5301571;28;20023;-70
2022/01/19 02:54:24;;;;;;;15.32;4.35;;;0.60;99.90;;;;;;5295196;28;20016;-71
2022/01/19 02:57:00;;;;;;;12.20;4.10;;;0.50;99.90;;;;;;5301179;28;20030;-70
2022/01/19 03:10:50;;;;;;;7.20;2.95;;;0.30;99.90;;;;;;5291304;28;20100;-73
2022/01/19 03:13:21;;;;;;;7.72;2.90;;;0.30;99.90;;;;;;5289908;28;20024;-71
2022/01/19 03:15:51;;;;;;;6.78;3.30;;;0.40;99.90;;;;;;5290844;28;20028;-71
2022/01/19 03:18:22;;;;;;;9.20;3.75;;;0.30;99.90;;;;;;5291159;28;20035;-70
2022/01/19 03:20:53;;;;;;;6.03;2.83;;;0.30;99.90;;;;;;5289710;28;20040;-73
2022/01/19 03:23:24;;;;;;;7.60;3.10;;;0.40;99.90;;;;;;5294786;28;20093;-73
2022/01/19 03:25:57;;;;;;;7.40;3.08;;;0.40;99.90;;;;;;5310232;28;20027;-71
2022/01/19 03:28:27;;;;;;;8.35;3.95;;;0.60;99.90;;;;;;5308807;28;20015;-72
2022/01/19 03:30:59;;;;;;;12.98;5.93;;;0.60;99.90;;;;;;5301589;28;21563;-73
2022/01/19 03:33:30;;;;;;;13.80;5.82;;;0.40;99.90;;;;;;5291082;28;20023;-72
2022/01/19 03:36:02;;;;;;;14.85;5.50;;;0.50;99.90;;;;;;5291300;28;20024;-73
2022/01/19 03:38:33;;;;;;;11.95;4.65;;;0.50;99.90;;;;;;5294784;27;20103;-71
2022/01/19 03:41:04;;;;;;;12.30;5.82;;;0.40;99.90;;;;;;5293628;27;20092;-71
2022/01/19 03:43:35;;;;;;;13.45;4.68;;;0.40;99.90;;;;;;5296947;27;20016;-72
2022/01/19 03:46:13;;;;;;;10.45;4.55;;;0.50;99.90;;;;;;5293398;28;20059;-71
2022/01/19 03:48:57;;;;;;;14.68;5.47;;;0.40;99.90;;;;;;5293505;27;20050;-71
2022/01/19 03:51:28;;;;;;;19.05;4.68;;;0.50;99.90;;;;;;5302791;27;20535;-71
2022/01/19 03:53:59;;;;;;;17.70;5.70;;;0.40;99.90;;;;;;5297111;27;20012;-72
2022/01/19 03:56:30;;;;;;;15.35;5.45;;;0.60;99.90;;;;;;5293128;28;20080;-71
2022/01/19 03:59:00;;;;;;;13.95;6.70;;;0.40;99.90;;;;;;5284731;27;20081;-73
2022/01/19 04:01:31;;;;;;;18.80;7.07;;;0.50;99.90;;;;;;5304171;27;20131;-72
2022/01/19 04:07:13;;;;;;;9.10;4.57;;;0.50;99.90;;;;;;5306124;27;20470;-72
2022/01/19 04:09:41;;;;;;;14.07;4.25;;;0.60;99.90;;;;;;5308183;27;20445;-71
2022/01/19 04:12:18;;;;;;;18.30;4.85;;;0.40;99.90;;;;;;5312644;27;20024;-71
2022/01/19 04:14:49;;;;;;;8.88;3.97;;;0.40;99.90;;;;;;5297984;27;20011;-71
2022/01/19 04:17:20;;;;;;;8.43;4.00;;;0.50;99.90;;;;;;5293868;27;20381;-72
2022/01/19 04:19:51;;;;;;;13.30;3.90;;;0.70;99.90;;;;;;5297362;27;20486;-70
2022/01/19 04:22:22;;;;;;;13.38;5.22;;;0.70;99.90;;;;;;5291129;28;20444;-72
2022/01/19 04:24:53;;;;;;;13.30;6.55;;;1.00;99.90;;;;;;5293616;27;20499;-71
2022/01/19 04:30:10;;;;;;;15.90;5.47;;;0.40;99.90;;;;;;5306397;27;20478;-72
2022/01/19 04:35:31;;;;;;;13.85;6.10;;;0.70;99.90;;;;;;5306920;27;20034;-72
2022/01/19 05:03:36;;;;;;;11.68;5.70;;;0.40;99.90;;;;;;5296399;27;20079;-71
2022/01/19 05:06:12;;;;;;;12.75;4.78;;;0.00;99.90;;;;;;5274959;28;20445;-72
2022/01/19 05:14:06;;;;;;;7.75;4.45;;;0.10;99.90;;;;;;5308098;27;20072;-72
2022/01/19 05:16:36;;;;;;;9.35;4.30;;;-0.10;99.90;;;;;;5306543;27;20023;-73
2022/01/19 05:19:10;;;;;;;16.23;6.70;;;0.00;99.90;;;;;;5298969;27;20063;-72
2022/01/19 05:21:41;;;;;;;17.80;7.63;;;0.00;99.90;;;;;;5309192;27;20042;-70
2022/01/19 05:24:12;;;;;;;18.77;7.05;;;0.10;99.90;;;;;;5310935;27;20454;-73
2022/01/19 05:26:46;;;;;;;15.75;4.38;;;0.30;99.90;;;;;;5298279;27;20019;-73
2022/01/19 05:29:17;;;;;;;8.80;3.63;;;0.10;99.90;;;;;;5309584;27;20039;-71
2022/01/19 05:31:48;;;;;;;14.55;6.53;;;0.20;99.90;;;;;;5306689;27;20034;-70
2022/01/19 05:34:19;;;;;;;12.35;5.95;;;0.10;99.90;;;;;;5291104;28;20036;-71
2022/01/19 05:36:50;;;;;;;12.15;5.28;;;0.10;99.90;;;;;;5294716;27;20012;-71
2022/01/19 05:39:21;;;;;;;10.30;4.80;;;0.30;99.90;;;;;;5292036;27;20031;-71
2022/01/19 05:41:52;;;;;;;9.60;4.22;;;0.60;99.90;;;;;;5291600;27;20084;-70
2022/01/19 05:44:23;;;;;;;8.50;4.43;;;0.40;99.90;;;;;;5293169;27;20105;-69
2022/01/19 05:46:54;;;;;;;15.38;6.05;;;0.40;99.90;;;;;;5300697;27;20135;-73
2022/01/19 05:49:25;;;;;;;14.05;6.15;;;0.30;99.90;;;;;;5308920;27;20470;-70
2022/01/19 05:51:56;;;;;;;14.27;6.03;;;0.40;99.90;;;;;;5308763;27;20027;-73
2022/01/19 05:54:27;;;;;;;16.27;6.72;;;0.50;99.90;;;;;;5309515;27;20061;-72
2022/01/19 05:56:58;;;;;;;12.63;5.35;;;0.40;99.90;;;;;;5304565;27;20039;-73
2022/01/19 05:59:29;;;;;;;11.52;4.68;;;0.20;99.90;;;;;;5298068;27;20043;-72
2022/01/19 06:02:00;;;;;;;14.05;4.50;;;0.50;99.90;;;;;;5298148;27;20537;-72
2022/01/19 06:04:31;;;;;;;11.73;5.25;;;0.50;99.90;;;;;;5298584;27;20530;-73
2022/01/19 06:07:03;;;;;;;12.07;4.57;;;0.40;99.90;;;;;;5294230;27;20034;-74
2022/01/19 06:09:37;;;;;;;9.60;4.22;;;0.20;99.90;;;;;;5293413;27;20031;-74
2022/01/19 06:12:10;;;;;;;8.07;4.10;;;0.20;99.90;;;;;;5294137;27;20076;-74
2022/01/19 06:14:43;;;;;;;9.25;4.18;;;0.20;99.90;;;;;;5294642;28;20020;-73
2022/01/19 06:17:14;;;;;;;9.13;3.15;;;0.10;99.90;;;;;;5292541;28;20023;-71
2022/01/19 06:19:48;;;;;;;8.65;3.55;;;0.20;99.90;;;;;;5303843;27;20076;-73
2022/01/19 06:22:21;;;;;;;8.60;4.15;;;0.20;99.90;;;;;;5293900;27;20031;-71
2022/01/19 06:24:52;;;;;;;13.73;3.30;;;0.40;99.90;;;;;;5299074;28;20031;-71
2022/01/19 06:27:24;;;;;;;7.88;3.15;;;0.30;99.90;;;;;;5297543;28;20118;-70
2022/01/19 06:29:58;;;;;;;12.40;4.25;;;0.50;99.90;;;;;;5302075;28;20051;-71
2022/01/19 06:32:29;;;;;;;87.85;33.67;;;0.30;99.90;;;;;;5299985;28;20133;-71
2022/01/19 06:35:01;;;;;;;39.53;15.27;;;0.60;99.90;;;;;;5289164;28;20094;-70
2022/01/19 06:37:32;;;;;;;31.88;14.20;;;0.70;99.90;;;;;;5297893;28;20039;-71
2022/01/19 06:40:09;;;;;;;19.10;9.00;;;0.50;99.90;;;;;;5302697;28;20038;-73
2022/01/19 06:42:41;;;;;;;12.68;7.22;;;0.40;99.90;;;;;;5292503;28;20027;-73
2022/01/19 06:45:13;;;;;;;83.68;37.30;;;0.50;99.90;;;;;;5293883;28;20077;-73
2022/01/19 06:47:44;;;;;;;33.67;15.57;;;0.40;99.90;;;;;;5302922;28;20023;-72
2022/01/19 06:50:19;;;;;;;38.25;16.05;;;0.40;99.90;;;;;;5298598;28;20062;-71
2022/01/19 06:52:50;;;;;;;7.65;3.50;;;0.40;99.90;;;;;;5300075;28;20024;-75
2022/01/19 06:55:27;;;;;;;9.38;3.13;;;0.60;99.90;;;;;;5295027;28;20039;-73
2022/01/19 06:58:02;;;;;;;9.07;3.95;;;0.50;99.90;;;;;;5289914;28;20056;-77
2022/01/19 07:00:39;;;;;;;14.10;6.47;;;0.80;99.90;;;;;;5292880;28;20054;-75
2022/01/19 07:03:11;;;;;;;17.65;7.68;;;0.90;99.90;;;;;;5293583;28;20019;-75
2022/01/19 07:05:45;;;;;;;8.88;3.50;;;0.90;99.90;;;;;;5297258;28;20054;-75
2022/01/19 07:08:16;;;;;;;15.52;4.07;;;0.60;99.90;;;;;;5301723;28;20019;-74
2022/01/19 07:10:47;;;;;;;6.80;2.92;;;0.70;99.90;;;;;;5297742;27;20027;-77
2022/01/19 07:13:19;;;;;;;12.90;3.70;;;0.90;99.90;;;;;;5310642;27;20504;-74
2022/01/19 07:15:52;;;;;;;8.02;3.17;;;1.00;99.90;;;;;;5304665;27;20520;-74
2022/01/19 07:18:24;;;;;;;9.93;2.92;;;1.20;99.90;;;;;;5305690;27;20027;-73
2022/01/19 07:20:54;;;;;;;9.45;3.50;;;1.20;99.90;;;;;;5304101;27;20027;-76
2022/01/19 07:23:25;;;;;;;7.10;2.35;;;1.30;99.90;;;;;;5297567;27;20103;-71
2022/01/19 07:25:56;;;;;;;14.60;7.60;;;1.80;99.90;;;;;;5295415;27;20020;-75
2022/01/19 07:28:37;;;;;;;17.05;7.03;;;1.30;99.90;;;;;;5305277;27;20020;-76
2022/01/19 07:31:08;;;;;;;12.38;6.00;;;1.40;99.90;;;;;;5298111;27;20054;-75
2022/01/19 07:33:39;;;;;;;8.80;4.18;;;1.40;99.90;;;;;;5293618;27;20031;-75
2022/01/19 07:36:10;;;;;;;14.15;5.68;;;1.70;99.90;;;;;;5294930;27;20034;-72
2022/01/19 07:38:41;;;;;;;10.45;4.55;;;1.60;99.90;;;;;;5293482;27;20028;-76
2022/01/19 07:41:12;;;;;;;7.22;3.45;;;1.60;99.90;;;;;;5302911;27;20080;-73
2022/01/19 07:43:43;;;;;;;8.55;3.95;;;1.60;99.90;;;;;;5297544;27;20039;-70
2022/01/19 07:46:15;;;;;;;13.63;6.72;;;1.50;99.90;;;;;;5295856;27;20030;-70
2022/01/19 07:48:47;;;;;;;9.30;3.88;;;1.60;99.90;;;;;;5304277;27;20054;-77
2022/01/19 07:51:17;;;;;;;10.77;4.80;;;1.60;99.90;;;;;;5296984;27;20031;-75
2022/01/19 07:53:51;;;;;;;6.20;3.55;;;1.50;99.90;;;;;;5301878;27;20023;-75
2022/01/19 07:56:22;;;;;;;8.73;3.60;;;1.50;99.90;;;;;;5299697;27;20493;-70
2022/01/19 07:58:53;;;;;;;14.63;7.95;;;1.60;99.90;;;;;;5303119;27;20124;-70
2022/01/19 08:01:26;;;;;;;10.23;5.30;;;1.60;99.90;;;;;;5306163;27;20112;-71
2022/01/19 08:03:58;;;;;;;10.05;4.95;;;1.60;99.90;;;;;;5302932;27;20046;-74
2022/01/19 08:06:29;;;;;;;16.30;5.75;;;1.40;99.90;;;;;;5294855;27;20022;-74
2022/01/19 08:09:00;;;;;;;12.52;5.88;;;1.50;99.90;;;;;;5303250;27;20015;-76
2022/01/19 08:11:31;;;;;;;27.63;13.48;;;1.40;99.90;;;;;;5298292;27;20431;-76
2022/01/19 08:14:05;;;;;;;11.90;5.18;;;1.30;99.90;;;;;;5281251;27;20347;-72
2022/01/19 08:16:35;;;;;;;10.55;3.95;;;1.70;99.90;;;;;;5294462;27;20088;-74
2022/01/19 08:19:08;;;;;;;12.27;4.97;;;1.50;99.90;;;;;;5303172;27;20065;-74
2022/01/19 08:21:38;;;;;;;11.48;4.47;;;1.50;99.90;;;;;;5292519;27;20039;-75
2022/01/19 08:24:10;;;;;;;8.65;2.50;;;1.60;99.90;;;;;;5296158;27;20023;-75
2022/01/19 08:26:42;;;;;;;15.15;4.40;;;1.50;99.90;;;;;;5298769;27;20043;-70
2022/01/19 08:29:13;;;;;;;9.32;4.15;;;1.80;99.90;;;;;;5296867;27;20470;-71
2022/01/19 08:31:44;;;;;;;17.55;5.22;;;1.80;99.90;;;;;;5273964;27;20470;-73
2022/01/19 08:34:17;;;;;;;14.13;5.43;;;2.00;99.90;;;;;;5306835;27;20018;-75
2022/01/19 08:36:48;;;;;;;42.03;19.13;;;2.00;99.90;;;;;;5296994;27;20028;-75
2022/01/19 08:39:19;;;;;;;19.63;9.20;;;1.90;99.90;;;;;;5295224;27;20027;-75
2022/01/19 08:41:50;;;;;;;10.65;4.78;;;2.00;99.90;;;;;;5298122;27;20069;-70
2022/01/19 08:44:22;;;;;;;14.50;7.95;;;2.00;99.90;;;;;;5301357;27;20023;-71
2022/01/19 08:46:53;;;;;;;10.50;6.60;;;2.00;99.90;;;;;;5301196;27;20027;-71
2022/01/19 08:49:24;;;;;;;10.38;4.95;;;1.80;99.90;;;;;;5298916;27;20075;-72
2022/01/19 08:51:55;;;;;;;8.85;3.67;;;2.00;99.90;;;;;;5299281;27;20446;-73
2022/01/19 08:54:26;;;;;;;9.82;4.00;;;2.30;99.90;;;;;;5280717;27;20035;-74
2022/01/19 08:56:59;;;;;;;11.70;4.57;;;2.10;99.90;;;;;;5295766;27;20034;-71
2022/01/19 08:59:32;;;;;;;11.80;3.13;;;2.40;99.90;;;;;;5295165;27;20032;-73
2022/01/19 09:02:04;;;;;;;8.50;3.45;;;2.40;99.90;;;;;;5274496;28;20032;-74
2022/01/19 09:04:35;;;;;;;9.40;3.78;;;2.50;99.90;;;;;;5303749;27;20027;-70
2022/01/19 09:07:06;;;;;;;15.73;5.32;;;2.50;99.90;;;;;;5293456;27;20023;-75
2022/01/19 09:09:37;;;;;;;10.63;5.32;;;2.50;99.90;;;;;;5296882;27;20034;-76
2022/01/19 09:12:09;;;;;;;11.48;5.45;;;2.60;99.90;;;;;;5302768;27;20468;-72
2022/01/19 09:14:39;;;;;;;12.32;5.10;;;2.50;99.90;;;;;;5292960;27;20082;-74
2022/01/19 09:17:10;;;;;;;9.90;5.20;;;2.30;99.90;;;;;;5301611;27;20038;-75
2022/01/19 09:19:41;;;;;;;6.90;3.22;;;2.30;99.90;;;;;;5280609;27;20027;-73
2022/01/19 09:22:12;;;;;;;8.32;3.67;;;2.50;99.90;;;;;;5290951;27;20074;-75
2022/01/19 09:24:43;;;;;;;8.50;3.20;;;2.20;99.90;;;;;;5297498;27;20033;-77
2022/01/19 09:27:15;;;;;;;10.07;4.13;;;2.50;99.90;;;;;;5295539;27;20027;-78
2022/01/19 09:29:46;;;;;;;8.50;3.78;;;2.40;99.90;;;;;;5291428;27;20027;-72
2022/01/19 09:32:17;;;;;;;14.05;4.85;;;2.50;99.90;;;;;;5289504;27;20958;-75
2022/01/19 09:34:54;;;;;;;8.57;4.22;;;2.60;99.90;;;;;;5276674;27;20081;-75
2022/01/19 09:37:25;;;;;;;12.00;4.97;;;2.80;99.90;;;;;;5294190;27;20038;-74
2022/01/19 09:39:56;;;;;;;11.35;3.33;;;2.70;99.90;;;;;;5293763;27;20027;-73
2022/01/19 09:42:27;;;;;;;12.32;4.75;;;2.70;99.90;;;;;;5290475;27;20031;-70
2022/01/19 09:44:58;;;;;;;14.23;5.55;;;2.90;99.90;;;;;;5276599;27;20496;-75
2022/01/19 09:47:29;;;;;;;7.80;3.72;;;2.90;99.90;;;;;;5294446;27;20019;-74
2022/01/19 09:50:00;;;;;;;14.50;5.07;;;3.10;99.90;;;;;;5294955;27;20025;-74
2022/01/19 09:52:31;;;;;;;6.78;3.13;;;4.30;99.90;;;;;;5278205;27;20354;-76
2022/01/19 09:55:02;;;;;;;7.00;3.58;;;4.20;99.90;;;;;;5292976;27;20497;-72
2022/01/19 09:57:34;;;;;;;10.95;5.38;;;4.00;99.90;;;;;;5298289;27;20405;-73
2022/01/19 10:00:05;;;;;;;6.60;3.97;;;3.60;99.90;;;;;;5295070;27;20480;-76
2022/01/19 10:02:38;;;;;;;10.07;3.63;;;3.90;99.90;;;;;;5296584;27;20047;-71
2022/01/19 10:05:09;;;;;;;10.27;3.25;;;4.90;99.90;;;;;;5297245;27;20035;-70
2022/01/19 10:07:40;;;;;;;9.05;3.88;;;5.30;99.90;;;;;;5293036;27;20031;-70
2022/01/19 10:10:11;;;;;;;7.28;3.40;;;5.30;99.90;;;;;;5293845;27;20031;-71
2022/01/19 10:18:29;;;;;;;6.60;2.83;;;4.40;99.90;;;;;;5305548;27;20692;-70
2022/01/19 10:21:18;;;;;;;11.20;5.15;;;4.60;95.10;;;;;;5298425;27;20040;-70
2022/01/19 10:23:51;;;;;;;11.88;5.38;;;5.00;99.90;;;;;;5298374;28;20025;-71
2022/01/19 10:26:25;;;;;;;7.32;4.20;;;5.30;88.60;;;;;;5304032;28;20054;-71
2022/01/19 10:29:00;;;;;;;11.85;7.20;;;5.20;88.80;;;;;;5294497;28;20020;-72
2022/01/19 10:31:34;;;;;;;17.25;11.25;;;6.00;90.60;;;;;;5288047;28;20462;-71
2022/01/19 10:34:16;;;;;;;9.43;3.90;;;5.60;86.00;;;;;;5291759;28;20056;-77
2022/01/19 10:36:49;;;;;;;8.90;4.22;;;5.90;87.80;;;;;;5295205;28;20033;-73
2022/01/19 10:39:22;;;;;;;9.70;3.35;;;6.10;78.80;;;;;;5288718;28;20027;-71
2022/01/19 10:41:57;;;;;;;5.20;2.70;;;6.20;75.50;;;;;;5294341;28;20031;-71
2022/01/19 10:44:32;;;;;;;8.77;4.32;;;6.70;77.20;;;;;;5291290;27;20478;-71
2022/01/19 10:47:05;;;;;;;7.13;3.80;;;6.00;78.10;;;;;;5300709;27;20102;-73
2022/01/19 10:49:56;;;;;;;14.05;6.53;;;5.50;79.80;;;;;;5299832;27;20026;-71
2022/01/19 10:52:29;;;;;;;8.38;3.92;;;6.20;82.20;;;;;;5300058;27;20031;-72
2022/01/19 10:55:03;;;;;;;9.38;5.10;;;5.80;80.90;;;;;;5295116;27;20023;-70
2022/01/19 10:57:39;;;;;;;7.40;3.95;;;5.90;82.80;;;;;;5304337;27;21567;-70
2022/01/19 11:00:16;;;;;;;8.20;3.78;;;5.90;81.20;;;;;;5310780;27;20374;-71
2022/01/19 11:02:48;;;;;;;8.27;2.70;;;6.70;83.10;;;;;;5298219;27;20710;-74
2022/01/19 11:05:44;;;;;;;5.80;3.25;;;6.10;74.90;;;;;;5299813;27;20407;-74
2022/01/19 11:08:18;;;;;;;10.40;4.63;;;6.70;77.80;;;;;;5297560;27;20024;-74
2022/01/19 11:10:52;;;;;;;9.05;3.47;;;6.50;75.60;;;;;;5297971;27;20430;-76
2022/01/19 11:13:32;;;;;;;7.40;3.85;;;6.90;73.80;;;;;;5300114;27;20116;-73
2022/01/19 11:16:04;;;;;;;10.23;4.13;;;6.80;76.10;;;;;;5302180;27;20449;-75
2022/01/19 11:18:39;;;;;;;8.75;3.25;;;6.00;77.20;;;;;;5303840;27;20292;-71
2022/01/19 11:21:12;;;;;;;5.05;2.90;;;7.20;76.00;;;;;;5275523;28;20485;-75
2022/01/19 11:24:06;;;;;;;9.05;3.20;;;6.40;78.50;;;;;;5313088;27;20046;-72
2022/01/19 11:26:37;;;;;;;5.00;2.67;;;6.70;80.90;;;;;;5306374;27;20350;-74
2022/01/19 11:29:19;;;;;;;5.35;2.53;;;5.20;78.60;;;;;;5306889;27;20024;-71
2022/01/19 11:31:53;;;;;;;9.00;3.42;;;5.80;72.70;;;;;;5298987;27;20050;-71
2022/01/19 11:34:44;;;;;;;5.75;2.33;;;6.30;72.80;;;;;;5302381;27;20023;-76
2022/01/19 11:37:33;;;;;;;5.57;2.67;;;6.20;69.10;;;;;;5255635;27;20032;-75
2022/01/19 11:40:09;;;;;;;6.93;2.67;;;6.00;67.50;;;;;;5308159;27;20022;-76
2022/01/19 11:42:42;;;;;;;6.93;2.97;;;5.90;65.20;;;;;;5301180;27;20030;-75
2022/01/19 11:45:37;;;;;;;6.15;2.53;;;6.30;65.40;;;;;;5297356;27;20029;-73
2022/01/19 11:48:35;;;;;;;9.48;4.93;;;5.90;68.40;;;;;;5286481;27;20035;-72
2022/01/19 11:51:30;;;;;;;27.17;13.65;;;5.40;64.60;;;;;;5297872;27;20043;-72
2022/01/19 11:54:17;;;;;;;64.53;36.55;;;5.10;69.50;;;;;;5302563;27;20046;-76
2022/01/19 11:57:02;;;;;;;14.30;6.10;;;5.90;70.30;;;;;;5294565;27;20030;-74
2022/01/19 11:59:51;;;;;;;5.82;3.30;;;5.60;71.90;;;;;;5295200;27;20048;-73
2022/01/19 12:02:32;;;;;;;10.15;6.95;;;5.80;70.10;;;;;;5296873;27;20039;-75
2022/01/19 12:05:10;;;;;;;11.35;5.85;;;5.80;70.10;;;;;;5276598;27;21616;-74
2022/01/19 12:07:59;;;;;;;8.13;3.95;;;6.10;69.20;;;;;;5297753;27;20035;-73
2022/01/19 12:10:45;;;;;;;8.65;2.90;;;6.40;71.60;;;;;;5299928;27;20035;-77
2022/01/19 12:13:55;;;;;;;6.65;3.17;;;6.50;71.80;;;;;;5299051;27;20038;-75
2022/01/19 12:16:50;;;;;;;5.45;2.80;;;5.50;73.00;;;;;;5303512;27;21795;-76
2022/01/19 12:19:26;;;;;;;10.30;5.65;;;5.60;71.40;;;;;;5303000;27;20028;-75
2022/01/19 12:22:27;;;;;;;7.97;4.20;;;5.50;72.90;;;;;;5302074;27;20030;-75
2022/01/19 12:25:11;;;;;;;11.52;7.03;;;4.30;80.30;;;;;;5300999;27;20019;-71
2022/01/19 12:27:50;;;;;;;9.43;5.25;;;5.80;76.60;;;;;;5300245;27;20031;-73
2022/01/19 12:30:31;;;;;;;13.88;8.93;;;5.60;80.90;;;;;;5296767;27;20502;-75
2022/01/19 12:33:07;;;;;;;11.43;7.18;;;6.20;76.90;;;;;;5301114;27;20158;-73
2022/01/19 12:35:43;;;;;;;17.38;9.95;;;5.40;77.70;;;;;;5276880;27;20031;-72
2022/01/19 12:38:30;;;;;;;11.48;4.70;;;5.10;82.00;;;;;;5290483;27;20481;-72
2022/01/19 12:41:02;;;;;;;16.27;8.45;;;5.10;80.00;;;;;;5291547;27;20043;-70
2022/01/19 12:43:38;;;;;;;23.00;12.65;;;5.50;82.00;;;;;;5293703;27;20122;-70
2022/01/19 12:46:10;;;;;;;224.07;103.15;;;5.90;81.20;;;;;;5294830;27;20397;-71
2022/01/19 12:48:55;;;;;;;14.43;7.03;;;6.60;78.90;;;;;;5292879;27;20369;-70
2022/01/19 12:51:43;;;;;;;17.20;10.63;;;5.50;79.40;;;;;;5294994;27;20070;-70
2022/01/19 12:54:16;;;;;;;8.75;4.68;;;6.20;79.40;;;;;;5293477;27;20019;-72
2022/01/19 12:56:55;;;;;;;10.65;6.95;;;5.70;79.10;;;;;;5298031;27;20039;-71
2022/01/19 12:59:27;;;;;;;6.40;4.05;;;5.20;82.20;;;;;;5303284;27;20078;-70
2022/01/19 13:01:59;;;;;;;12.38;3.95;;;5.80;83.90;;;;;;5301274;27;20492;-70
2022/01/19 13:04:33;;;;;;;13.65;7.90;;;5.00;80.50;;;;;;5305201;27;20027;-71
2022/01/19 13:07:20;;;;;;;38.83;28.77;;;5.30;80.90;;;;;;5296609;27;20028;-70
2022/01/19 13:10:07;;;;;;;14.68;8.85;;;5.40;79.60;;;;;;5298105;27;20028;-71
2022/01/19 13:15:58;;;;;;;8.95;5.88;;;6.20;76.20;;;;;;5285492;27;20548;-71
2022/01/19 13:18:34;;;;;;;18.90;8.80;;;5.30;78.50;;;;;;5293934;27;20374;-70
2022/01/19 13:21:07;;;;;;;13.60;8.70;;;4.80;81.40;;;;;;5294588;27;20059;-71
2022/01/19 13:24:05;;;;;;;10.00;6.55;;;5.30;80.10;;;;;;5295171;27;20562;-69
2022/01/19 13:26:44;;;;;;;14.82;9.13;;;5.70;79.40;;;;;;5292862;27;20393;-70
2022/01/19 13:29:19;;;;;;;5.43;3.53;;;5.50;79.60;;;;;;5296407;27;20016;-70
2022/01/19 13:32:08;;;;;;;9.73;5.90;;;4.70;78.70;;;;;;5312027;27;20524;-71
2022/01/19 13:35:02;;;;;;;7.70;4.00;;;5.20;77.20;;;;;;5294403;27;20023;-70
2022/01/19 13:37:38;;;;;;;11.73;8.73;;;5.10;76.80;;;;;;5283610;27;20106;-70
2022/01/19 13:40:13;;;;;;;20.25;14.57;;;5.20;73.40;;;;;;5295494;27;20020;-70
2022/01/19 13:43:08;;;;;;;8.25;5.05;;;5.60;75.50;;;;;;5307733;27;20019;-70
2022/01/19 13:48:28;;;;;;;10.50;5.88;;;4.30;74.70;;;;;;5300239;27;20027;-70
2022/01/19 13:51:11;;;;;;;30.38;16.40;;;5.10;79.80;;;;;;5295270;27;20050;-72
2022/01/19 13:53:49;;;;;;;26.23;13.43;;;4.80;77.50;;;;;;5296740;27;20031;-70
2022/01/19 13:56:36;;;;;;;36.53;20.42;;;4.40;80.30;;;;;;5299059;27;20054;-70
2022/01/19 13:59:17;;;;;;;29.50;16.63;;;4.10;77.00;;;;;;5297576;27;20049;-70
2022/01/19 14:01:56;;;;;;;10.02;5.00;;;4.50;74.20;;;;;;5298498;27;20048;-71
2022/01/19 14:04:33;;;;;;;11.57;6.90;;;4.10;75.90;;;;;;5301593;27;20035;-72
2022/01/19 14:07:16;;;;;;;9.77;4.93;;;4.10;78.50;;;;;;5306891;27;20033;-70
2022/01/19 14:09:48;;;;;;;7.72;3.60;;;3.90;83.20;;;;;;5305234;27;20019;-71
2022/01/19 14:12:19;;;;;;;12.73;7.25;;;4.00;85.10;;;;;;5309073;27;20019;-71
2022/01/19 14:14:56;;;;;;;6.80;3.47;;;4.00;85.20;;;;;;5295125;27;20027;-69
2022/01/19 14:17:37;;;;;;;6.75;3.15;;;3.90;79.90;;;;;;5301464;27;20024;-69
2022/01/19 14:20:18;;;;;;;7.88;3.50;;;3.40;93.10;;;;;;5295345;27;20365;-70
2022/01/19 14:22:56;;;;;;;8.43;4.05;;;3.50;91.50;;;;;;5297543;27;20035;-72
2022/01/19 14:25:27;;;;;;;7.15;3.35;;;3.50;80.30;;;;;;5311579;28;20019;-72
2022/01/19 14:27:59;;;;;;;6.03;3.55;;;3.50;86.50;;;;;;5304693;28;20057;-72
2022/01/19 14:30:32;;;;;;;7.65;2.88;;;3.30;85.30;;;;;;5303667;28;20027;-72
2022/01/19 14:33:09;;;;;;;10.10;3.75;;;2.60;94.20;;;;;;5296847;28;20370;-72
2022/01/19 14:35:43;;;;;;;10.15;3.78;;;2.80;99.80;;;;;;5298956;28;20494;-73
2022/01/19 14:38:22;;;;;;;8.35;2.92;;;2.40;88.90;;;;;;5297115;28;20027;-72
2022/01/19 14:41:04;;;;;;;8.57;2.90;;;1.80;99.90;;;;;;5293716;28;20031;-71
2022/01/19 14:43:48;;;;;;;9.68;3.40;;;1.80;99.90;;;;;;5301058;28;20019;-71
2022/01/19 14:46:36;;;;;;;12.68;6.18;;;1.60;99.90;;;;;;5302592;28;20104;-70
2022/01/19 14:49:07;;;;;;;19.38;7.95;;;1.50;99.90;;;;;;5282671;28;20108;-69
2022/01/19 14:51:44;;;;;;;13.70;6.78;;;1.70;99.90;;;;;;5301339;28;20023;-69
2022/01/19 14:54:15;;;;;;;121.32;53.22;;;1.50;99.90;;;;;;5293921;28;20130;-69
2022/01/19 14:56:46;;;;;;;73.82;35.35;;;1.50;99.90;;;;;;5294057;28;20016;-70
2022/01/19 14:59:19;;;;;;;12.02;5.90;;;1.50;99.90;;;;;;5305647;28;20134;-69
2022/01/19 15:01:58;;;;;;;40.90;18.38;;;1.00;99.90;;;;;;5298414;28;20059;-70